sensor_id;sensor_type;location;lat;lon;timestamp;temperature;humidity
71801;HTU21D;59647;55.838;37.292;2023-05-19T00:02:12;17.11;75.18
71801;HTU21D;59647;55.838;37.292;2023-05-19T00:04:40;17.10;77.31
71801;HTU21D;59647;55.838;37.292;2023-05-19T00:07:09;17.11;79.67
71801;HTU21D;59647;55.838;37.292;2023-05-19T00:09:36;17.09;80.04
71801;HTU21D;59647;55.838;37.292;2023-05-19T00:12:03;17.13;80.92
71801;HTU21D;59647;55.838;37.292;2023-05-19T00:14:29;17.11;76.98
71801;HTU21D;59647;55.838;37.292;2023-05-19T00:16:55;17.09;76.83
71801;HTU21D;59647;55.838;37.292;2023-05-19T00:19:24;17.00;80.76
71801;HTU21D;59647;55.838;37.292;2023-05-19T00:21:50;16.94;81.05
71801;HTU21D;59647;55.838;37.292;2023-05-19T00:24:16;16.93;84.28
71801;HTU21D;59647;55.838;37.292;2023-05-19T00:26:42;16.81;82.39
71801;HTU21D;59647;55.838;37.292;2023-05-19T00:29:08;16.64;79.71
71801;HTU21D;59647;55.838;37.292;2023-05-19T00:31:34;16.56;79.12
71801;HTU21D;59647;55.838;37.292;2023-05-19T00:34:01;16.52;78.00
71801;HTU21D;59647;55.838;37.292;2023-05-19T00:36:28;16.43;79.01
71801;HTU21D;59647;55.838;37.292;2023-05-19T00:38:55;16.36;78.02
71801;HTU21D;59647;55.838;37.292;2023-05-19T00:41:21;16.27;78.27
71801;HTU21D;59647;55.838;37.292;2023-05-19T00:43:48;16.21;79.84
71801;HTU21D;59647;55.838;37.292;2023-05-19T00:46:15;15.97;90.91
71801;HTU21D;59647;55.838;37.292;2023-05-19T00:48:41;15.92;82.41
71801;HTU21D;59647;55.838;37.292;2023-05-19T00:51:09;15.76;83.81
71801;HTU21D;59647;55.838;37.292;2023-05-19T00:53:39;15.68;82.99
71801;HTU21D;59647;55.838;37.292;2023-05-19T00:56:05;15.51;85.72
71801;HTU21D;59647;55.838;37.292;2023-05-19T00:58:33;15.47;83.41
71801;HTU21D;59647;55.838;37.292;2023-05-19T01:01:00;15.45;82.57
71801;HTU21D;59647;55.838;37.292;2023-05-19T01:03:33;15.42;82.55
71801;HTU21D;59647;55.838;37.292;2023-05-19T01:06:00;15.25;88.25
71801;HTU21D;59647;55.838;37.292;2023-05-19T01:08:34;15.22;85.29
71801;HTU21D;59647;55.838;37.292;2023-05-19T01:11:02;15.18;86.23
71801;HTU21D;59647;55.838;37.292;2023-05-19T01:13:29;15.16;85.58
71801;HTU21D;59647;55.838;37.292;2023-05-19T01:18:49;15.02;87.16
71801;HTU21D;59647;55.838;37.292;2023-05-19T01:31:14;14.56;84.93
71801;HTU21D;59647;55.838;37.292;2023-05-19T01:33:16;14.32;89.17
71801;HTU21D;59647;55.838;37.292;2023-05-19T01:35:44;14.28;85.91
71801;HTU21D;59647;55.838;37.292;2023-05-19T01:38:11;14.24;83.26
71801;HTU21D;59647;55.838;37.292;2023-05-19T01:40:40;14.10;83.52
71801;HTU21D;59647;55.838;37.292;2023-05-19T01:43:09;14.04;83.29
71801;HTU21D;59647;55.838;37.292;2023-05-19T01:45:36;13.92;82.53
71801;HTU21D;59647;55.838;37.292;2023-05-19T01:48:03;13.88;82.17
71801;HTU21D;59647;55.838;37.292;2023-05-19T01:50:30;13.76;82.46
71801;HTU21D;59647;55.838;37.292;2023-05-19T01:52:57;13.66;82.07
71801;HTU21D;59647;55.838;37.292;2023-05-19T01:55:24;13.55;81.13
71801;HTU21D;59647;55.838;37.292;2023-05-19T01:58:22;13.43;82.07
71801;HTU21D;59647;55.838;37.292;2023-05-19T02:04:00;13.21;85.13
71801;HTU21D;59647;55.838;37.292;2023-05-19T02:09:25;13.17;82.83
71801;HTU21D;59647;55.838;37.292;2023-05-19T02:12:09;13.15;81.97
71801;HTU21D;59647;55.838;37.292;2023-05-19T02:14:51;13.08;84.23
71801;HTU21D;59647;55.838;37.292;2023-05-19T02:17:19;13.07;84.14
71801;HTU21D;59647;55.838;37.292;2023-05-19T02:19:46;12.99;88.12
71801;HTU21D;59647;55.838;37.292;2023-05-19T02:22:13;13.00;82.83
71801;HTU21D;59647;55.838;37.292;2023-05-19T02:24:39;13.03;83.29
71801;HTU21D;59647;55.838;37.292;2023-05-19T02:27:06;13.00;84.54
71801;HTU21D;59647;55.838;37.292;2023-05-19T02:29:33;13.03;82.14
71801;HTU21D;59647;55.838;37.292;2023-05-19T02:32:00;12.93;84.47
71801;HTU21D;59647;55.838;37.292;2023-05-19T02:34:26;12.96;81.30
71801;HTU21D;59647;55.838;37.292;2023-05-19T02:36:52;12.90;82.87
71801;HTU21D;59647;55.838;37.292;2023-05-19T02:39:18;12.88;83.14
71801;HTU21D;59647;55.838;37.292;2023-05-19T02:41:44;12.88;84.13
71801;HTU21D;59647;55.838;37.292;2023-05-19T02:44:10;12.90;85.87
71801;HTU21D;59647;55.838;37.292;2023-05-19T02:46:36;12.93;82.72
71801;HTU21D;59647;55.838;37.292;2023-05-19T02:49:02;12.93;84.12
71801;HTU21D;59647;55.838;37.292;2023-05-19T02:51:28;12.88;85.48
71801;HTU21D;59647;55.838;37.292;2023-05-19T02:53:54;12.90;82.01
71801;HTU21D;59647;55.838;37.292;2023-05-19T02:56:20;12.86;84.75
71801;HTU21D;59647;55.838;37.292;2023-05-19T02:58:46;12.86;81.62
71801;HTU21D;59647;55.838;37.292;2023-05-19T03:01:12;12.76;83.85
71801;HTU21D;59647;55.838;37.292;2023-05-19T03:03:38;12.74;83.46
71801;HTU21D;59647;55.838;37.292;2023-05-19T03:06:04;12.74;84.07
71801;HTU21D;59647;55.838;37.292;2023-05-19T03:08:34;12.69;84.90
71801;HTU21D;59647;55.838;37.292;2023-05-19T03:11:01;12.67;85.45
71801;HTU21D;59647;55.838;37.292;2023-05-19T03:13:27;12.65;84.66
71801;HTU21D;59647;55.838;37.292;2023-05-19T03:15:53;12.62;90.43
71801;HTU21D;59647;55.838;37.292;2023-05-19T03:18:21;12.61;86.58
71801;HTU21D;59647;55.838;37.292;2023-05-19T03:20:49;12.61;86.28
71801;HTU21D;59647;55.838;37.292;2023-05-19T03:23:15;12.64;85.66
71801;HTU21D;59647;55.838;37.292;2023-05-19T03:25:41;12.63;84.58
71801;HTU21D;59647;55.838;37.292;2023-05-19T03:28:07;12.62;87.76
71801;HTU21D;59647;55.838;37.292;2023-05-19T03:30:33;12.67;84.71
71801;HTU21D;59647;55.838;37.292;2023-05-19T03:33:10;12.67;84.28
71801;HTU21D;59647;55.838;37.292;2023-05-19T03:35:36;12.64;85.93
71801;HTU21D;59647;55.838;37.292;2023-05-19T03:38:03;12.71;87.02
71801;HTU21D;59647;55.838;37.292;2023-05-19T03:40:29;12.75;86.61
71801;HTU21D;59647;55.838;37.292;2023-05-19T03:43:02;12.81;84.16
71801;HTU21D;59647;55.838;37.292;2023-05-19T03:45:28;12.78;85.71
71801;HTU21D;59647;55.838;37.292;2023-05-19T03:47:56;12.79;86.30
71801;HTU21D;59647;55.838;37.292;2023-05-19T03:50:46;12.75;85.30
71801;HTU21D;59647;55.838;37.292;2023-05-19T03:53:21;12.71;87.26
71801;HTU21D;59647;55.838;37.292;2023-05-19T03:55:47;12.74;85.58
71801;HTU21D;59647;55.838;37.292;2023-05-19T03:58:14;12.72;86.61
71801;HTU21D;59647;55.838;37.292;2023-05-19T04:00:41;12.72;86.25
71801;HTU21D;59647;55.838;37.292;2023-05-19T04:03:06;12.79;87.78
71801;HTU21D;59647;55.838;37.292;2023-05-19T04:05:33;12.79;91.48
71801;HTU21D;59647;55.838;37.292;2023-05-19T04:07:59;12.86;85.94
71801;HTU21D;59647;55.838;37.292;2023-05-19T04:10:25;12.85;89.40
71801;HTU21D;59647;55.838;37.292;2023-05-19T04:12:53;12.88;93.56
71801;HTU21D;59647;55.838;37.292;2023-05-19T04:15:20;12.91;87.93
71801;HTU21D;59647;55.838;37.292;2023-05-19T04:17:46;12.96;88.18
71801;HTU21D;59647;55.838;37.292;2023-05-19T04:20:12;13.04;90.93
71801;HTU21D;59647;55.838;37.292;2023-05-19T04:22:38;13.06;91.78
71801;HTU21D;59647;55.838;37.292;2023-05-19T04:25:04;13.08;91.33
71801;HTU21D;59647;55.838;37.292;2023-05-19T04:27:31;13.09;90.41
71801;HTU21D;59647;55.838;37.292;2023-05-19T04:30:02;13.11;86.66
71801;HTU21D;59647;55.838;37.292;2023-05-19T04:32:31;13.17;87.04
71801;HTU21D;59647;55.838;37.292;2023-05-19T04:34:57;13.21;89.00
71801;HTU21D;59647;55.838;37.292;2023-05-19T04:37:25;13.19;87.11
71801;HTU21D;59647;55.838;37.292;2023-05-19T04:39:51;13.21;87.96
71801;HTU21D;59647;55.838;37.292;2023-05-19T04:42:20;13.26;87.18
71801;HTU21D;59647;55.838;37.292;2023-05-19T04:44:47;13.33;84.97
71801;HTU21D;59647;55.838;37.292;2023-05-19T04:47:17;13.23;85.81
71801;HTU21D;59647;55.838;37.292;2023-05-19T04:49:46;13.29;88.40
71801;HTU21D;59647;55.838;37.292;2023-05-19T04:52:13;13.35;86.83
71801;HTU21D;59647;55.838;37.292;2023-05-19T04:54:39;13.37;85.97
71801;HTU21D;59647;55.838;37.292;2023-05-19T04:57:06;13.39;86.18
71801;HTU21D;59647;55.838;37.292;2023-05-19T04:59:36;13.36;86.16
71801;HTU21D;59647;55.838;37.292;2023-05-19T05:02:04;13.40;86.32
71801;HTU21D;59647;55.838;37.292;2023-05-19T05:04:30;13.44;86.03
71801;HTU21D;59647;55.838;37.292;2023-05-19T05:06:57;13.45;87.89
71801;HTU21D;59647;55.838;37.292;2023-05-19T05:09:24;13.46;89.45
71801;HTU21D;59647;55.838;37.292;2023-05-19T05:11:50;13.56;86.67
71801;HTU21D;59647;55.838;37.292;2023-05-19T05:14:18;13.64;86.56
71801;HTU21D;59647;55.838;37.292;2023-05-19T05:16:46;13.73;87.73
71801;HTU21D;59647;55.838;37.292;2023-05-19T05:19:17;13.77;87.24
71801;HTU21D;59647;55.838;37.292;2023-05-19T05:21:43;13.83;88.70
71801;HTU21D;59647;55.838;37.292;2023-05-19T05:24:10;13.85;89.32
71801;HTU21D;59647;55.838;37.292;2023-05-19T05:26:36;13.86;87.06
71801;HTU21D;59647;55.838;37.292;2023-05-19T05:29:02;13.91;84.94
71801;HTU21D;59647;55.838;37.292;2023-05-19T05:31:29;13.95;84.71
71801;HTU21D;59647;55.838;37.292;2023-05-19T05:33:57;13.90;86.81
71801;HTU21D;59647;55.838;37.292;2023-05-19T05:36:27;13.95;85.25
71801;HTU21D;59647;55.838;37.292;2023-05-19T05:38:53;13.95;85.42
71801;HTU21D;59647;55.838;37.292;2023-05-19T05:41:19;13.98;86.12
71801;HTU21D;59647;55.838;37.292;2023-05-19T05:43:48;14.06;85.10
71801;HTU21D;59647;55.838;37.292;2023-05-19T05:46:14;14.11;87.10
71801;HTU21D;59647;55.838;37.292;2023-05-19T05:48:40;14.12;87.50
71801;HTU21D;59647;55.838;37.292;2023-05-19T05:51:08;14.18;86.36
71801;HTU21D;59647;55.838;37.292;2023-05-19T05:53:39;14.23;85.65
71801;HTU21D;59647;55.838;37.292;2023-05-19T05:56:07;14.32;86.22
71801;HTU21D;59647;55.838;37.292;2023-05-19T05:58:41;14.40;84.13
71801;HTU21D;59647;55.838;37.292;2023-05-19T06:01:07;14.35;83.90
71801;HTU21D;59647;55.838;37.292;2023-05-19T06:03:40;14.40;84.16
71801;HTU21D;59647;55.838;37.292;2023-05-19T06:06:08;14.40;84.17
71801;HTU21D;59647;55.838;37.292;2023-05-19T06:08:35;14.40;85.00
71801;HTU21D;59647;55.838;37.292;2023-05-19T06:11:02;14.49;83.55
71801;HTU21D;59647;55.838;37.292;2023-05-19T06:13:35;14.53;84.96
71801;HTU21D;59647;55.838;37.292;2023-05-19T06:16:05;14.64;86.12
71801;HTU21D;59647;55.838;37.292;2023-05-19T06:18:37;14.83;84.80
71801;HTU21D;59647;55.838;37.292;2023-05-19T06:21:03;14.87;83.16
71801;HTU21D;59647;55.838;37.292;2023-05-19T06:23:30;14.92;86.44
71801;HTU21D;59647;55.838;37.292;2023-05-19T06:25:56;14.99;84.21
71801;HTU21D;59647;55.838;37.292;2023-05-19T06:28:22;15.06;84.82
71801;HTU21D;59647;55.838;37.292;2023-05-19T06:30:50;15.06;82.78
71801;HTU21D;59647;55.838;37.292;2023-05-19T06:33:26;15.06;82.76
71801;HTU21D;59647;55.838;37.292;2023-05-19T06:35:52;15.04;83.40
71801;HTU21D;59647;55.838;37.292;2023-05-19T06:38:19;15.03;82.07
71801;HTU21D;59647;55.838;37.292;2023-05-19T06:40:45;15.14;81.52
71801;HTU21D;59647;55.838;37.292;2023-05-19T06:43:12;15.16;81.08
71801;HTU21D;59647;55.838;37.292;2023-05-19T06:45:55;15.13;82.52
71801;HTU21D;59647;55.838;37.292;2023-05-19T06:48:23;15.14;81.36
71801;HTU21D;59647;55.838;37.292;2023-05-19T06:50:49;15.19;81.72
71801;HTU21D;59647;55.838;37.292;2023-05-19T06:53:17;15.30;81.91
71801;HTU21D;59647;55.838;37.292;2023-05-19T06:55:43;15.47;80.97
71801;HTU21D;59647;55.838;37.292;2023-05-19T06:58:12;15.53;82.44
71801;HTU21D;59647;55.838;37.292;2023-05-19T07:00:38;15.49;80.33
71801;HTU21D;59647;55.838;37.292;2023-05-19T07:03:06;15.52;79.30
71801;HTU21D;59647;55.838;37.292;2023-05-19T07:05:32;15.52;79.14
71801;HTU21D;59647;55.838;37.292;2023-05-19T07:07:59;15.51;79.11
71801;HTU21D;59647;55.838;37.292;2023-05-19T07:10:27;15.59;77.24
71801;HTU21D;59647;55.838;37.292;2023-05-19T07:12:54;15.67;78.46
71801;HTU21D;59647;55.838;37.292;2023-05-19T07:15:23;15.82;77.05
71801;HTU21D;59647;55.838;37.292;2023-05-19T07:17:49;15.70;77.39
71801;HTU21D;59647;55.838;37.292;2023-05-19T07:20:15;15.88;76.12
71801;HTU21D;59647;55.838;37.292;2023-05-19T07:22:41;15.91;76.02
71801;HTU21D;59647;55.838;37.292;2023-05-19T07:25:08;15.92;75.60
71801;HTU21D;59647;55.838;37.292;2023-05-19T07:27:34;15.98;74.15
71801;HTU21D;59647;55.838;37.292;2023-05-19T07:30:00;16.00;72.19
71801;HTU21D;59647;55.838;37.292;2023-05-19T07:32:26;15.98;70.86
71801;HTU21D;59647;55.838;37.292;2023-05-19T07:34:52;16.18;69.55
71801;HTU21D;59647;55.838;37.292;2023-05-19T07:37:18;16.22;68.72
71801;HTU21D;59647;55.838;37.292;2023-05-19T07:39:44;16.18;59.61
71801;HTU21D;59647;55.838;37.292;2023-05-19T07:42:09;16.17;62.31
71801;HTU21D;59647;55.838;37.292;2023-05-19T07:44:35;16.25;66.01
71801;HTU21D;59647;55.838;37.292;2023-05-19T07:47:01;16.22;64.92
71801;HTU21D;59647;55.838;37.292;2023-05-19T07:49:27;16.17;62.86
71801;HTU21D;59647;55.838;37.292;2023-05-19T07:51:54;16.17;61.16
71801;HTU21D;59647;55.838;37.292;2023-05-19T07:54:20;16.37;63.70
71801;HTU21D;59647;55.838;37.292;2023-05-19T07:56:46;16.49;62.89
71801;HTU21D;59647;55.838;37.292;2023-05-19T07:59:14;16.67;63.73
71801;HTU21D;59647;55.838;37.292;2023-05-19T08:01:40;16.96;62.64
71801;HTU21D;59647;55.838;37.292;2023-05-19T08:04:05;17.32;61.46
71801;HTU21D;59647;55.838;37.292;2023-05-19T08:06:31;17.49;62.83
71801;HTU21D;59647;55.838;37.292;2023-05-19T08:08:57;17.45;62.32
71801;HTU21D;59647;55.838;37.292;2023-05-19T08:11:23;17.67;62.21
71801;HTU21D;59647;55.838;37.292;2023-05-19T08:13:49;17.61;50.44
71801;HTU21D;59647;55.838;37.292;2023-05-19T08:16:15;17.88;60.04
71801;HTU21D;59647;55.838;37.292;2023-05-19T08:18:41;17.93;54.94
71801;HTU21D;59647;55.838;37.292;2023-05-19T08:21:07;18.05;49.76
71801;HTU21D;59647;55.838;37.292;2023-05-19T08:23:33;17.89;50.63
71801;HTU21D;59647;55.838;37.292;2023-05-19T08:25:59;17.84;55.92
71801;HTU21D;59647;55.838;37.292;2023-05-19T08:28:26;17.69;51.03
71801;HTU21D;59647;55.838;37.292;2023-05-19T08:30:52;17.50;53.97
71801;HTU21D;59647;55.838;37.292;2023-05-19T08:33:18;17.56;54.99
71801;HTU21D;59647;55.838;37.292;2023-05-19T08:35:46;17.67;55.33
71801;HTU21D;59647;55.838;37.292;2023-05-19T08:38:12;17.76;54.41
71801;HTU21D;59647;55.838;37.292;2023-05-19T08:40:41;17.73;48.68
71801;HTU21D;59647;55.838;37.292;2023-05-19T08:43:08;17.75;51.50
71801;HTU21D;59647;55.838;37.292;2023-05-19T08:45:36;17.82;52.27
71801;HTU21D;59647;55.838;37.292;2023-05-19T08:48:03;18.27;53.46
71801;HTU21D;59647;55.838;37.292;2023-05-19T08:50:30;18.46;51.19
71801;HTU21D;59647;55.838;37.292;2023-05-19T08:53:09;18.41;46.76
71801;HTU21D;59647;55.838;37.292;2023-05-19T08:58:18;19.41;49.60
71801;HTU21D;59647;55.838;37.292;2023-05-19T09:00:47;20.02;50.84
71801;HTU21D;59647;55.838;37.292;2023-05-19T09:03:15;19.97;39.72
71801;HTU21D;59647;55.838;37.292;2023-05-19T09:05:43;19.94;49.22
71801;HTU21D;59647;55.838;37.292;2023-05-19T09:08:09;19.60;46.09
71801;HTU21D;59647;55.838;37.292;2023-05-19T09:10:34;19.81;44.77
71801;HTU21D;59647;55.838;37.292;2023-05-19T09:13:00;19.65;45.23
71801;HTU21D;59647;55.838;37.292;2023-05-19T09:15:26;19.45;46.23
71801;HTU21D;59647;55.838;37.292;2023-05-19T09:18:07;19.45;46.22
71801;HTU21D;59647;55.838;37.292;2023-05-19T09:20:41;19.20;42.16
71801;HTU21D;59647;55.838;37.292;2023-05-19T09:23:16;19.25;40.07
71801;HTU21D;59647;55.838;37.292;2023-05-19T09:28:13;19.37;41.98
71801;HTU21D;59647;55.838;37.292;2023-05-19T09:30:39;19.45;45.81
71801;HTU21D;59647;55.838;37.292;2023-05-19T09:33:05;19.37;41.91
71801;HTU21D;59647;55.838;37.292;2023-05-19T09:35:34;19.45;45.25
71801;HTU21D;59647;55.838;37.292;2023-05-19T09:38:01;19.51;40.31
71801;HTU21D;59647;55.838;37.292;2023-05-19T09:40:27;19.82;37.86
71801;HTU21D;59647;55.838;37.292;2023-05-19T09:42:53;20.22;39.72
71801;HTU21D;59647;55.838;37.292;2023-05-19T09:45:19;20.76;43.53
71801;HTU21D;59647;55.838;37.292;2023-05-19T09:47:45;20.77;33.25
71801;HTU21D;59647;55.838;37.292;2023-05-19T09:50:11;20.48;42.41
71801;HTU21D;59647;55.838;37.292;2023-05-19T09:52:41;20.35;42.08
71801;HTU21D;59647;55.838;37.292;2023-05-19T09:55:09;20.22;37.18
71801;HTU21D;59647;55.838;37.292;2023-05-19T09:57:36;20.60;40.78
71801;HTU21D;59647;55.838;37.292;2023-05-19T10:00:07;21.21;40.46
71801;HTU21D;59647;55.838;37.292;2023-05-19T10:02:41;21.70;38.83
71801;HTU21D;59647;55.838;37.292;2023-05-19T10:05:12;22.02;37.26
71801;HTU21D;59647;55.838;37.292;2023-05-19T10:07:45;22.28;39.76
71801;HTU21D;59647;55.838;37.292;2023-05-19T10:10:13;21.75;38.00
71801;HTU21D;59647;55.838;37.292;2023-05-19T10:12:41;21.42;39.34
71801;HTU21D;59647;55.838;37.292;2023-05-19T10:15:12;21.36;37.05
71801;HTU21D;59647;55.838;37.292;2023-05-19T10:17:39;21.57;37.82
71801;HTU21D;59647;55.838;37.292;2023-05-19T10:22:34;21.21;37.05
71801;HTU21D;59647;55.838;37.292;2023-05-19T10:25:00;21.00;37.93
71801;HTU21D;59647;55.838;37.292;2023-05-19T10:27:27;21.18;38.87
71801;HTU21D;59647;55.838;37.292;2023-05-19T10:29:57;21.13;35.18
71801;HTU21D;59647;55.838;37.292;2023-05-19T10:32:26;21.13;37.04
71801;HTU21D;59647;55.838;37.292;2023-05-19T10:38:32;21.63;33.86
71801;HTU21D;59647;55.838;37.292;2023-05-19T10:40:29;21.58;32.46
71801;HTU21D;59647;55.838;37.292;2023-05-19T10:45:51;22.17;36.50
71801;HTU21D;59647;55.838;37.292;2023-05-19T10:48:19;22.40;30.49
71801;HTU21D;59647;55.838;37.292;2023-05-19T10:50:46;22.52;35.34
71801;HTU21D;59647;55.838;37.292;2023-05-19T10:53:16;22.47;34.08
71801;HTU21D;59647;55.838;37.292;2023-05-19T10:55:45;22.62;34.54
71801;HTU21D;59647;55.838;37.292;2023-05-19T10:58:15;22.44;31.80
71801;HTU21D;59647;55.838;37.292;2023-05-19T11:01:00;22.37;34.72
71801;HTU21D;59647;55.838;37.292;2023-05-19T11:03:27;22.48;35.34
71801;HTU21D;59647;55.838;37.292;2023-05-19T11:08:42;21.85;31.86
71801;HTU21D;59647;55.838;37.292;2023-05-19T11:11:13;21.99;32.67
71801;HTU21D;59647;55.838;37.292;2023-05-19T11:13:41;22.33;31.14
71801;HTU21D;59647;55.838;37.292;2023-05-19T11:16:08;22.61;31.07
71801;HTU21D;59647;55.838;37.292;2023-05-19T11:18:34;22.57;28.99
71801;HTU21D;59647;55.838;37.292;2023-05-19T11:21:02;22.79;32.98
71801;HTU21D;59647;55.838;37.292;2023-05-19T11:23:32;22.79;30.66
71801;HTU21D;59647;55.838;37.292;2023-05-19T11:26:00;22.90;31.08
71801;HTU21D;59647;55.838;37.292;2023-05-19T11:28:27;22.43;33.07
71801;HTU21D;59647;55.838;37.292;2023-05-19T11:30:55;22.16;29.10
71801;HTU21D;59647;55.838;37.292;2023-05-19T11:33:24;22.48;33.15
71801;HTU21D;59647;55.838;37.292;2023-05-19T11:35:55;22.44;33.34
71801;HTU21D;59647;55.838;37.292;2023-05-19T11:38:26;22.33;33.20
71801;HTU21D;59647;55.838;37.292;2023-05-19T11:40:53;21.90;31.85
71801;HTU21D;59647;55.838;37.292;2023-05-19T11:43:22;21.64;31.92
71801;HTU21D;59647;55.838;37.292;2023-05-19T11:45:48;21.29;30.18
71801;HTU21D;59647;55.838;37.292;2023-05-19T11:48:14;21.20;32.38
71801;HTU21D;59647;55.838;37.292;2023-05-19T11:50:41;21.04;32.12
71801;HTU21D;59647;55.838;37.292;2023-05-19T11:53:11;21.31;31.67
71801;HTU21D;59647;55.838;37.292;2023-05-19T11:55:42;21.60;31.08
71801;HTU21D;59647;55.838;37.292;2023-05-19T11:58:09;21.94;30.31
71801;HTU21D;59647;55.838;37.292;2023-05-19T12:00:38;22.17;32.35
71801;HTU21D;59647;55.838;37.292;2023-05-19T12:03:04;22.13;30.83
71801;HTU21D;59647;55.838;37.292;2023-05-19T12:05:31;22.41;30.83
71801;HTU21D;59647;55.838;37.292;2023-05-19T12:07:57;22.54;31.51
71801;HTU21D;59647;55.838;37.292;2023-05-19T12:10:29;22.08;30.14
71801;HTU21D;59647;55.838;37.292;2023-05-19T12:12:55;21.53;30.02
71801;HTU21D;59647;55.838;37.292;2023-05-19T12:15:23;21.44;29.93
71801;HTU21D;59647;55.838;37.292;2023-05-19T12:17:57;21.65;30.85
71801;HTU21D;59647;55.838;37.292;2023-05-19T12:20:24;22.13;30.87
71801;HTU21D;59647;55.838;37.292;2023-05-19T12:22:53;22.47;29.65
71801;HTU21D;59647;55.838;37.292;2023-05-19T12:25:19;22.43;30.80
71801;HTU21D;59647;55.838;37.292;2023-05-19T12:27:46;21.97;28.85
71801;HTU21D;59647;55.838;37.292;2023-05-19T12:30:15;21.62;29.98
71801;HTU21D;59647;55.838;37.292;2023-05-19T12:32:42;21.74;29.37
71801;HTU21D;59647;55.838;37.292;2023-05-19T12:35:09;21.90;29.84
71801;HTU21D;59647;55.838;37.292;2023-05-19T12:37:36;21.83;30.44
71801;HTU21D;59647;55.838;37.292;2023-05-19T12:40:05;21.58;30.03
71801;HTU21D;59647;55.838;37.292;2023-05-19T12:42:31;21.78;31.24
71801;HTU21D;59647;55.838;37.292;2023-05-19T12:44:59;21.96;31.17
71801;HTU21D;59647;55.838;37.292;2023-05-19T12:47:32;21.88;28.68
71801;HTU21D;59647;55.838;37.292;2023-05-19T12:50:02;21.64;29.74
71801;HTU21D;59647;55.838;37.292;2023-05-19T12:52:33;21.49;30.38
71801;HTU21D;59647;55.838;37.292;2023-05-19T12:55:02;21.23;30.32
71801;HTU21D;59647;55.838;37.292;2023-05-19T12:57:39;21.33;30.40
71801;HTU21D;59647;55.838;37.292;2023-05-19T13:00:17;21.53;29.90
71801;HTU21D;59647;55.838;37.292;2023-05-19T13:05:20;21.76;29.40
71801;HTU21D;59647;55.838;37.292;2023-05-19T13:08:01;21.55;30.28
71801;HTU21D;59647;55.838;37.292;2023-05-19T13:10:28;21.43;29.50
71801;HTU21D;59647;55.838;37.292;2023-05-19T13:12:54;21.25;29.68
71801;HTU21D;59647;55.838;37.292;2023-05-19T13:15:22;21.29;30.31
71801;HTU21D;59647;55.838;37.292;2023-05-19T13:17:49;21.24;30.61
71801;HTU21D;59647;55.838;37.292;2023-05-19T13:20:15;21.18;30.93
71801;HTU21D;59647;55.838;37.292;2023-05-19T13:22:41;21.10;30.35
71801;HTU21D;59647;55.838;37.292;2023-05-19T13:25:08;20.95;30.80
71801;HTU21D;59647;55.838;37.292;2023-05-19T13:27:34;20.87;30.62
71801;HTU21D;59647;55.838;37.292;2023-05-19T13:30:01;21.08;30.73
71801;HTU21D;59647;55.838;37.292;2023-05-19T13:32:32;20.70;30.22
71801;HTU21D;59647;55.838;37.292;2023-05-19T13:34:59;20.49;30.61
71801;HTU21D;59647;55.838;37.292;2023-05-19T13:37:25;20.43;30.31
71801;HTU21D;59647;55.838;37.292;2023-05-19T13:39:51;20.50;31.01
71801;HTU21D;59647;55.838;37.292;2023-05-19T13:42:17;20.73;31.26
71801;HTU21D;59647;55.838;37.292;2023-05-19T13:44:46;20.91;31.11
71801;HTU21D;59647;55.838;37.292;2023-05-19T13:47:12;21.10;31.10
71801;HTU21D;59647;55.838;37.292;2023-05-19T13:49:38;20.99;30.63
71801;HTU21D;59647;55.838;37.292;2023-05-19T13:52:06;20.76;30.09
71801;HTU21D;59647;55.838;37.292;2023-05-19T13:54:32;20.75;30.26
71801;HTU21D;59647;55.838;37.292;2023-05-19T13:56:59;21.06;31.28
71801;HTU21D;59647;55.838;37.292;2023-05-19T13:59:25;21.38;30.42
71801;HTU21D;59647;55.838;37.292;2023-05-19T14:01:51;21.38;30.82
71801;HTU21D;59647;55.838;37.292;2023-05-19T14:04:17;21.11;30.38
71801;HTU21D;59647;55.838;37.292;2023-05-19T14:06:44;21.00;30.14
71801;HTU21D;59647;55.838;37.292;2023-05-19T14:09:11;20.89;30.12
71801;HTU21D;59647;55.838;37.292;2023-05-19T14:11:37;21.16;30.88
71801;HTU21D;59647;55.838;37.292;2023-05-19T14:14:03;21.14;29.37
71801;HTU21D;59647;55.838;37.292;2023-05-19T14:16:29;20.98;29.77
71801;HTU21D;59647;55.838;37.292;2023-05-19T14:18:55;20.94;29.84
71801;HTU21D;59647;55.838;37.292;2023-05-19T14:21:21;20.95;29.79
71801;HTU21D;59647;55.838;37.292;2023-05-19T14:23:47;21.03;29.89
71801;HTU21D;59647;55.838;37.292;2023-05-19T14:26:13;21.36;29.76
71801;HTU21D;59647;55.838;37.292;2023-05-19T14:28:39;21.83;30.03
71801;HTU21D;59647;55.838;37.292;2023-05-19T14:31:13;21.64;29.39
71801;HTU21D;59647;55.838;37.292;2023-05-19T14:33:39;21.28;27.30
71801;HTU21D;59647;55.838;37.292;2023-05-19T14:36:07;20.93;27.38
71801;HTU21D;59647;55.838;37.292;2023-05-19T14:38:33;20.71;28.99
71801;HTU21D;59647;55.838;37.292;2023-05-19T14:40:59;20.62;29.72
71801;HTU21D;59647;55.838;37.292;2023-05-19T14:43:25;20.56;29.69
71801;HTU21D;59647;55.838;37.292;2023-05-19T14:45:51;20.42;30.22
71801;HTU21D;59647;55.838;37.292;2023-05-19T14:48:17;20.15;30.50
71801;HTU21D;59647;55.838;37.292;2023-05-19T14:50:44;19.90;30.76
71801;HTU21D;59647;55.838;37.292;2023-05-19T14:53:12;19.80;31.01
71801;HTU21D;59647;55.838;37.292;2023-05-19T14:55:38;19.55;31.03
71801;HTU21D;59647;55.838;37.292;2023-05-19T14:58:05;19.42;31.49
71801;HTU21D;59647;55.838;37.292;2023-05-19T15:00:31;19.37;31.54
71801;HTU21D;59647;55.838;37.292;2023-05-19T15:02:58;19.29;31.73
71801;HTU21D;59647;55.838;37.292;2023-05-19T15:05:24;19.31;31.87
71801;HTU21D;59647;55.838;37.292;2023-05-19T15:07:50;19.28;31.86
71801;HTU21D;59647;55.838;37.292;2023-05-19T15:10:19;19.16;32.12
71801;HTU21D;59647;55.838;37.292;2023-05-19T15:12:47;19.10;32.02
71801;HTU21D;59647;55.838;37.292;2023-05-19T15:15:13;18.99;32.47
71801;HTU21D;59647;55.838;37.292;2023-05-19T15:17:41;18.96;32.54
71801;HTU21D;59647;55.838;37.292;2023-05-19T15:20:07;18.98;32.64
71801;HTU21D;59647;55.838;37.292;2023-05-19T15:22:33;18.98;32.70
71801;HTU21D;59647;55.838;37.292;2023-05-19T15:24:59;18.98;33.80
71801;HTU21D;59647;55.838;37.292;2023-05-19T15:27:26;18.96;33.10
71801;HTU21D;59647;55.838;37.292;2023-05-19T15:29:52;18.98;33.50
71801;HTU21D;59647;55.838;37.292;2023-05-19T15:32:18;19.06;33.28
71801;HTU21D;59647;55.838;37.292;2023-05-19T15:34:44;19.02;33.11
71801;HTU21D;59647;55.838;37.292;2023-05-19T15:37:10;18.93;33.41
71801;HTU21D;59647;55.838;37.292;2023-05-19T15:39:36;18.86;33.72
71801;HTU21D;59647;55.838;37.292;2023-05-19T15:42:02;18.89;33.63
71801;HTU21D;59647;55.838;37.292;2023-05-19T15:44:28;18.92;33.63